sensor_id;sensor_type;location;lat;lon;timestamp;P1;durP1;ratioP1;P2;durP2;ratioP2
9005;SDS011;62284;50.702;7.140;2022-11-15T00:00:55;9.07;;;8.20;;
9005;SDS011;62284;50.702;7.140;2022-11-15T00:03:24;8.95;;;8.20;;
9005;SDS011;62284;50.702;7.140;2022-11-15T00:05:52;9.45;;;8.65;;
9005;SDS011;62284;50.702;7.140;2022-11-15T00:08:19;8.23;;;7.63;;
9005;SDS011;62284;50.702;7.140;2022-11-15T00:10:53;7.70;;;7.10;;
9005;SDS011;62284;50.702;7.140;2022-11-15T00:13:20;8.80;;;8.10;;
9005;SDS011;62284;50.702;7.140;2022-11-15T00:15:47;9.63;;;8.73;;
9005;SDS011;62284;50.702;7.140;2022-11-15T00:18:15;9.85;;;8.93;;
9005;SDS011;62284;50.702;7.140;2022-11-15T00:20:42;9.18;;;8.40;;
9005;SDS011;62284;50.702;7.140;2022-11-15T00:23:10;8.70;;;7.90;;
9005;SDS011;62284;50.702;7.140;2022-11-15T00:25:37;8.93;;;8.23;;
9005;SDS011;62284;50.702;7.140;2022-11-15T00:28:04;8.57;;;7.85;;
9005;SDS011;62284;50.702;7.140;2022-11-15T00:30:31;8.32;;;7.72;;
9005;SDS011;62284;50.702;7.140;2022-11-15T00:33:01;8.93;;;8.23;;
9005;SDS011;62284;50.702;7.140;2022-11-15T00:35:30;8.93;;;8.32;;
9005;SDS011;62284;50.702;7.140;2022-11-15T00:37:58;8.55;;;7.88;;
9005;SDS011;62284;50.702;7.140;2022-11-15T00:40:25;9.27;;;8.48;;
9005;SDS011;62284;50.702;7.140;2022-11-15T00:42:52;8.93;;;8.20;;
9005;SDS011;62284;50.702;7.140;2022-11-15T00:45:19;9.63;;;8.52;;
9005;SDS011;62284;50.702;7.140;2022-11-15T00:47:46;9.57;;;8.77;;
9005;SDS011;62284;50.702;7.140;2022-11-15T00:50:13;8.75;;;8.05;;
9005;SDS011;62284;50.702;7.140;2022-11-15T00:52:42;7.82;;;7.22;;
9005;SDS011;62284;50.702;7.140;2022-11-15T00:55:09;8.48;;;7.78;;
9005;SDS011;62284;50.702;7.140;2022-11-15T00:57:40;9.95;;;9.05;;
9005;SDS011;62284;50.702;7.140;2022-11-15T01:00:07;8.27;;;7.57;;
9005;SDS011;62284;50.702;7.140;2022-11-15T01:02:35;8.73;;;8.02;;
9005;SDS011;62284;50.702;7.140;2022-11-15T01:05:02;8.25;;;7.65;;
9005;SDS011;62284;50.702;7.140;2022-11-15T01:07:29;8.23;;;7.43;;
9005;SDS011;62284;50.702;7.140;2022-11-15T01:09:57;8.57;;;7.88;;
9005;SDS011;62284;50.702;7.140;2022-11-15T01:12:24;7.72;;;7.10;;
9005;SDS011;62284;50.702;7.140;2022-11-15T01:14:51;7.72;;;7.13;;
9005;SDS011;62284;50.702;7.140;2022-11-15T01:17:18;8.02;;;7.32;;
9005;SDS011;62284;50.702;7.140;2022-11-15T01:19:45;9.07;;;8.27;;
9005;SDS011;62284;50.702;7.140;2022-11-15T01:22:11;7.55;;;6.85;;
9005;SDS011;62284;50.702;7.140;2022-11-15T01:24:38;7.05;;;6.45;;
9005;SDS011;62284;50.702;7.140;2022-11-15T01:27:07;7.40;;;6.80;;
9005;SDS011;62284;50.702;7.140;2022-11-15T01:29:33;7.15;;;6.60;;
9005;SDS011;62284;50.702;7.140;2022-11-15T01:32:00;6.43;;;6.00;;
9005;SDS011;62284;50.702;7.140;2022-11-15T01:34:27;7.35;;;6.75;;
9005;SDS011;62284;50.702;7.140;2022-11-15T01:36:54;7.50;;;6.90;;
9005;SDS011;62284;50.702;7.140;2022-11-15T01:39:21;6.88;;;6.38;;
9005;SDS011;62284;50.702;7.140;2022-11-15T01:41:48;7.00;;;6.47;;
9005;SDS011;62284;50.702;7.140;2022-11-15T01:47:11;7.00;;;6.40;;
9005;SDS011;62284;50.702;7.140;2022-11-15T01:49:43;7.28;;;6.57;;
9005;SDS011;62284;50.702;7.140;2022-11-15T01:52:17;6.78;;;6.18;;
9005;SDS011;62284;50.702;7.140;2022-11-15T01:54:45;7.25;;;6.55;;
9005;SDS011;62284;50.702;7.140;2022-11-15T01:57:13;6.82;;;6.32;;
9005;SDS011;62284;50.702;7.140;2022-11-15T01:59:40;5.85;;;5.35;;
9005;SDS011;62284;50.702;7.140;2022-11-15T02:02:11;6.68;;;6.05;;
9005;SDS011;62284;50.702;7.140;2022-11-15T02:04:40;6.70;;;6.20;;
9005;SDS011;62284;50.702;7.140;2022-11-15T02:07:08;6.53;;;6.03;;
9005;SDS011;62284;50.702;7.140;2022-11-15T02:09:38;6.00;;;5.47;;
9005;SDS011;62284;50.702;7.140;2022-11-15T02:12:06;5.72;;;5.32;;
9005;SDS011;62284;50.702;7.140;2022-11-15T02:14:34;6.30;;;5.90;;
9005;SDS011;62284;50.702;7.140;2022-11-15T02:17:07;6.32;;;5.82;;
9005;SDS011;62284;50.702;7.140;2022-11-15T02:22:57;6.57;;;6.07;;
9005;SDS011;62284;50.702;7.140;2022-11-15T02:25:41;5.97;;;5.57;;
9005;SDS011;62284;50.702;7.140;2022-11-15T02:28:28;6.30;;;5.90;;
9005;SDS011;62284;50.702;7.140;2022-11-15T02:31:07;5.32;;;4.93;;
9005;SDS011;62284;50.702;7.140;2022-11-15T02:33:41;5.90;;;5.38;;
9005;SDS011;62284;50.702;7.140;2022-11-15T02:36:18;6.05;;;5.55;;
9005;SDS011;62284;50.702;7.140;2022-11-15T02:38:54;5.45;;;5.05;;
9005;SDS011;62284;50.702;7.140;2022-11-15T02:41:26;5.60;;;5.18;;
9005;SDS011;62284;50.702;7.140;2022-11-15T02:43:59;5.40;;;4.93;;
9005;SDS011;62284;50.702;7.140;2022-11-15T02:46:33;5.50;;;5.10;;
9005;SDS011;62284;50.702;7.140;2022-11-15T02:49:20;5.72;;;5.32;;
9005;SDS011;62284;50.702;7.140;2022-11-15T02:51:48;5.47;;;5.07;;
9005;SDS011;62284;50.702;7.140;2022-11-15T02:54:18;6.00;;;5.50;;
9005;SDS011;62284;50.702;7.140;2022-11-15T02:56:48;5.55;;;5.15;;
9005;SDS011;62284;50.702;7.140;2022-11-15T02:59:20;6.38;;;5.88;;
9005;SDS011;62284;50.702;7.140;2022-11-15T03:02:07;6.20;;;5.65;;
9005;SDS011;62284;50.702;7.140;2022-11-15T03:04:45;6.35;;;5.85;;
9005;SDS011;62284;50.702;7.140;2022-11-15T03:07:22;6.05;;;5.65;;
9005;SDS011;62284;50.702;7.140;2022-11-15T03:09:54;6.68;;;6.18;;
9005;SDS011;62284;50.702;7.140;2022-11-15T03:12:29;6.95;;;6.38;;
9005;SDS011;62284;50.702;7.140;2022-11-15T03:15:04;10.77;;;7.03;;
9005;SDS011;62284;50.702;7.140;2022-11-15T03:17:37;6.97;;;6.47;;
9005;SDS011;62284;50.702;7.140;2022-11-15T03:20:07;6.85;;;6.35;;
9005;SDS011;62284;50.702;7.140;2022-11-15T03:22:38;6.35;;;5.85;;
9005;SDS011;62284;50.702;7.140;2022-11-15T03:25:08;6.57;;;6.05;;
9005;SDS011;62284;50.702;7.140;2022-11-15T03:27:42;6.88;;;6.28;;
9005;SDS011;62284;50.702;7.140;2022-11-15T03:30:12;6.72;;;6.22;;
9005;SDS011;62284;50.702;7.140;2022-11-15T03:32:42;6.53;;;6.05;;
9005;SDS011;62284;50.702;7.140;2022-11-15T03:35:12;6.65;;;6.25;;
9005;SDS011;62284;50.702;7.140;2022-11-15T03:37:43;6.55;;;6.05;;
9005;SDS011;62284;50.702;7.140;2022-11-15T03:40:15;6.60;;;6.10;;
9005;SDS011;62284;50.702;7.140;2022-11-15T03:42:44;6.18;;;5.78;;
9005;SDS011;62284;50.702;7.140;2022-11-15T03:45:22;6.70;;;6.20;;
9005;SDS011;62284;50.702;7.140;2022-11-15T03:47:55;6.68;;;6.18;;
9005;SDS011;62284;50.702;7.140;2022-11-15T03:50:28;6.15;;;5.75;;
9005;SDS011;62284;50.702;7.140;2022-11-15T03:52:55;6.80;;;6.30;;
9005;SDS011;62284;50.702;7.140;2022-11-15T03:55:23;6.88;;;6.28;;
9005;SDS011;62284;50.702;7.140;2022-11-15T03:57:51;5.75;;;5.38;;
9005;SDS011;62284;50.702;7.140;2022-11-15T04:00:21;6.53;;;6.10;;
9005;SDS011;62284;50.702;7.140;2022-11-15T04:02:48;6.35;;;5.85;;
9005;SDS011;62284;50.702;7.140;2022-11-15T04:05:16;5.97;;;5.47;;
9005;SDS011;62284;50.702;7.140;2022-11-15T04:07:43;6.03;;;5.63;;
9005;SDS011;62284;50.702;7.140;2022-11-15T04:10:10;6.50;;;6.05;;
9005;SDS011;62284;50.702;7.140;2022-11-15T04:12:39;6.63;;;6.13;;
9005;SDS011;62284;50.702;7.140;2022-11-15T04:15:09;6.07;;;5.57;;
9005;SDS011;62284;50.702;7.140;2022-11-15T04:17:38;6.45;;;6.05;;
9005;SDS011;62284;50.702;7.140;2022-11-15T04:20:07;6.43;;;5.95;;
9005;SDS011;62284;50.702;7.140;2022-11-15T04:22:55;6.32;;;5.82;;
9005;SDS011;62284;50.702;7.140;2022-11-15T04:25:40;6.18;;;5.68;;
9005;SDS011;62284;50.702;7.140;2022-11-15T04:28:08;6.47;;;6.05;;
9005;SDS011;62284;50.702;7.140;2022-11-15T04:30:35;6.40;;;6.00;;
9005;SDS011;62284;50.702;7.140;2022-11-15T04:33:02;13.20;;;6.30;;
9005;SDS011;62284;50.702;7.140;2022-11-15T04:35:29;5.80;;;5.30;;
9005;SDS011;62284;50.702;7.140;2022-11-15T04:37:58;7.10;;;6.57;;
9005;SDS011;62284;50.702;7.140;2022-11-15T04:40:25;6.57;;;6.07;;
9005;SDS011;62284;50.702;7.140;2022-11-15T04:42:51;5.85;;;5.45;;
9005;SDS011;62284;50.702;7.140;2022-11-15T04:45:18;5.38;;;5.07;;
9005;SDS011;62284;50.702;7.140;2022-11-15T04:47:45;6.22;;;5.72;;
9005;SDS011;62284;50.702;7.140;2022-11-15T04:50:13;5.47;;;5.07;;
9005;SDS011;62284;50.702;7.140;2022-11-15T04:52:40;5.55;;;5.15;;
9005;SDS011;62284;50.702;7.140;2022-11-15T04:55:09;5.32;;;4.82;;
9005;SDS011;62284;50.702;7.140;2022-11-15T04:57:36;4.93;;;4.63;;
9005;SDS011;62284;50.702;7.140;2022-11-15T05:00:04;5.05;;;4.75;;
9005;SDS011;62284;50.702;7.140;2022-11-15T05:02:33;5.05;;;4.75;;
9005;SDS011;62284;50.702;7.140;2022-11-15T05:05:17;4.38;;;4.07;;
9005;SDS011;62284;50.702;7.140;2022-11-15T05:07:44;5.38;;;4.88;;
9005;SDS011;62284;50.702;7.140;2022-11-15T05:10:12;4.80;;;4.50;;
9005;SDS011;62284;50.702;7.140;2022-11-15T05:12:39;4.93;;;4.53;;
9005;SDS011;62284;50.702;7.140;2022-11-15T05:15:06;5.63;;;5.03;;
9005;SDS011;62284;50.702;7.140;2022-11-15T05:17:34;4.60;;;4.30;;
9005;SDS011;62284;50.702;7.140;2022-11-15T05:20:00;4.90;;;4.57;;
9005;SDS011;62284;50.702;7.140;2022-11-15T05:22:27;5.03;;;4.70;;
9005;SDS011;62284;50.702;7.140;2022-11-15T05:24:54;4.40;;;4.10;;
9005;SDS011;62284;50.702;7.140;2022-11-15T05:27:22;4.28;;;3.97;;
9005;SDS011;62284;50.702;7.140;2022-11-15T05:29:49;4.45;;;4.15;;
9005;SDS011;62284;50.702;7.140;2022-11-15T05:32:16;4.60;;;4.22;;
9005;SDS011;62284;50.702;7.140;2022-11-15T05:34:44;4.75;;;4.35;;
9005;SDS011;62284;50.702;7.140;2022-11-15T05:37:11;4.65;;;4.32;;
9005;SDS011;62284;50.702;7.140;2022-11-15T05:39:38;4.60;;;4.20;;
9005;SDS011;62284;50.702;7.140;2022-11-15T05:42:06;5.25;;;4.75;;
9005;SDS011;62284;50.702;7.140;2022-11-15T05:44:37;4.93;;;4.53;;
9005;SDS011;62284;50.702;7.140;2022-11-15T05:47:07;4.97;;;4.57;;
9005;SDS011;62284;50.702;7.140;2022-11-15T05:49:36;4.65;;;4.25;;
9005;SDS011;62284;50.702;7.140;2022-11-15T05:52:07;4.90;;;4.57;;
9005;SDS011;62284;50.702;7.140;2022-11-15T05:54:36;4.47;;;4.15;;
9005;SDS011;62284;50.702;7.140;2022-11-15T05:57:03;4.10;;;3.80;;
9005;SDS011;62284;50.702;7.140;2022-11-15T05:59:31;4.90;;;4.50;;
9005;SDS011;62284;50.702;7.140;2022-11-15T06:02:00;4.70;;;4.30;;
9005;SDS011;62284;50.702;7.140;2022-11-15T06:04:27;5.00;;;4.60;;
9005;SDS011;62284;50.702;7.140;2022-11-15T06:06:54;4.25;;;3.95;;
9005;SDS011;62284;50.702;7.140;2022-11-15T06:09:20;4.68;;;4.38;;
9005;SDS011;62284;50.702;7.140;2022-11-15T06:11:47;4.40;;;4.10;;
9005;SDS011;62284;50.702;7.140;2022-11-15T06:14:14;4.15;;;3.78;;
9005;SDS011;62284;50.702;7.140;2022-11-15T06:16:41;4.65;;;4.25;;
9005;SDS011;62284;50.702;7.140;2022-11-15T06:19:09;3.80;;;3.60;;
9005;SDS011;62284;50.702;7.140;2022-11-15T06:21:36;4.35;;;4.05;;
9005;SDS011;62284;50.702;7.140;2022-11-15T06:24:03;3.80;;;3.60;;
9005;SDS011;62284;50.702;7.140;2022-11-15T06:26:31;4.00;;;3.70;;
9005;SDS011;62284;50.702;7.140;2022-11-15T06:28:58;4.40;;;4.03;;
9005;SDS011;62284;50.702;7.140;2022-11-15T06:31:25;4.00;;;3.70;;
9005;SDS011;62284;50.702;7.140;2022-11-15T06:33:52;3.88;;;3.55;;
9005;SDS011;62284;50.702;7.140;2022-11-15T06:36:20;3.80;;;3.50;;
9005;SDS011;62284;50.702;7.140;2022-11-15T06:38:47;4.10;;;3.80;;
9005;SDS011;62284;50.702;7.140;2022-11-15T06:41:14;4.07;;;3.72;;
9005;SDS011;62284;50.702;7.140;2022-11-15T06:43:41;3.85;;;3.55;;
9005;SDS011;62284;50.702;7.140;2022-11-15T06:46:08;3.50;;;3.30;;
9005;SDS011;62284;50.702;7.140;2022-11-15T06:48:35;3.90;;;3.58;;
9005;SDS011;62284;50.702;7.140;2022-11-15T06:51:03;3.63;;;3.42;;
9005;SDS011;62284;50.702;7.140;2022-11-15T06:53:32;3.95;;;3.60;;
9005;SDS011;62284;50.702;7.140;2022-11-15T06:55:59;3.60;;;3.40;;
9005;SDS011;62284;50.702;7.140;2022-11-15T06:58:27;3.38;;;3.17;;
9005;SDS011;62284;50.702;7.140;2022-11-15T07:00:57;3.22;;;3.03;;
9005;SDS011;62284;50.702;7.140;2022-11-15T07:03:24;4.30;;;4.00;;
9005;SDS011;62284;50.702;7.140;2022-11-15T07:05:52;3.72;;;3.53;;
9005;SDS011;62284;50.702;7.140;2022-11-15T07:08:20;3.53;;;3.22;;
9005;SDS011;62284;50.702;7.140;2022-11-15T07:10:48;3.40;;;3.20;;
9005;SDS011;62284;50.702;7.140;2022-11-15T07:13:15;3.97;;;3.70;;
9005;SDS011;62284;50.702;7.140;2022-11-15T07:15:42;3.42;;;3.22;;
9005;SDS011;62284;50.702;7.140;2022-11-15T07:18:09;3.88;;;3.58;;
9005;SDS011;62284;50.702;7.140;2022-11-15T07:20:36;3.30;;;3.10;;
9005;SDS011;62284;50.702;7.140;2022-11-15T07:23:05;4.28;;;3.75;;
9005;SDS011;62284;50.702;7.140;2022-11-15T07:25:32;4.05;;;3.67;;
9005;SDS011;62284;50.702;7.140;2022-11-15T07:28:18;3.72;;;3.50;;
9005;SDS011;62284;50.702;7.140;2022-11-15T07:30:45;4.18;;;3.63;;
9005;SDS011;62284;50.702;7.140;2022-11-15T07:33:11;3.47;;;3.28;;
9005;SDS011;62284;50.702;7.140;2022-11-15T07:35:38;3.70;;;3.40;;
9005;SDS011;62284;50.702;7.140;2022-11-15T07:38:05;3.85;;;3.55;;
9005;SDS011;62284;50.702;7.140;2022-11-15T07:40:32;4.03;;;3.67;;
9005;SDS011;62284;50.702;7.140;2022-11-15T07:42:59;4.60;;;4.13;;
9005;SDS011;62284;50.702;7.140;2022-11-15T07:45:28;4.75;;;4.32;;
9005;SDS011;62284;50.702;7.140;2022-11-15T07:47:55;4.63;;;4.22;;
9005;SDS011;62284;50.702;7.140;2022-11-15T07:50:22;4.78;;;4.35;;
9005;SDS011;62284;50.702;7.140;2022-11-15T07:52:53;4.38;;;4.07;;
9005;SDS011;62284;50.702;7.140;2022-11-15T07:55:21;4.50;;;4.10;;
9005;SDS011;62284;50.702;7.140;2022-11-15T07:57:48;4.70;;;4.30;;
9005;SDS011;62284;50.702;7.140;2022-11-15T08:00:16;4.10;;;3.80;;
9005;SDS011;62284;50.702;7.140;2022-11-15T08:02:44;3.97;;;3.67;;
9005;SDS011;62284;50.702;7.140;2022-11-15T08:05:11;3.88;;;3.58;;
9005;SDS011;62284;50.702;7.140;2022-11-15T08:07:39;3.78;;;3.58;;
9005;SDS011;62284;50.702;7.140;2022-11-15T08:10:06;5.90;;;5.40;;
9005;SDS011;62284;50.702;7.140;2022-11-15T08:12:34;3.88;;;3.58;;
9005;SDS011;62284;50.702;7.140;2022-11-15T08:15:01;3.50;;;3.20;;
9005;SDS011;62284;50.702;7.140;2022-11-15T08:17:28;3.25;;;3.05;;
9005;SDS011;62284;50.702;7.140;2022-11-15T08:19:59;3.78;;;3.47;;
9005;SDS011;62284;50.702;7.140;2022-11-15T08:22:25;4.13;;;3.78;;
9005;SDS011;62284;50.702;7.140;2022-11-15T08:24:52;3.35;;;3.05;;
9005;SDS011;62284;50.702;7.140;2022-11-15T08:27:19;3.60;;;3.30;;
9005;SDS011;62284;50.702;7.140;2022-11-15T08:29:47;3.35;;;3.15;;
9005;SDS011;62284;50.702;7.140;2022-11-15T08:32:14;3.20;;;2.90;;
9005;SDS011;62284;50.702;7.140;2022-11-15T08:34:42;2.80;;;2.60;;
9005;SDS011;62284;50.702;7.140;2022-11-15T08:37:11;3.30;;;3.00;;
9005;SDS011;62284;50.702;7.140;2022-11-15T08:39:37;3.15;;;2.85;;
9005;SDS011;62284;50.702;7.140;2022-11-15T08:42:04;4.18;;;3.05;;
9005;SDS011;62284;50.702;7.140;2022-11-15T08:44:31;4.32;;;3.72;;
9005;SDS011;62284;50.702;7.140;2022-11-15T08:46:58;3.00;;;2.80;;
9005;SDS011;62284;50.702;7.140;2022-11-15T08:49:25;3.20;;;2.90;;
9005;SDS011;62284;50.702;7.140;2022-11-15T08:51:52;3.30;;;3.10;;
9005;SDS011;62284;50.702;7.140;2022-11-15T08:54:20;3.35;;;2.58;;
9005;SDS011;62284;50.702;7.140;2022-11-15T08:56:47;2.95;;;2.75;;
9005;SDS011;62284;50.702;7.140;2022-11-15T08:59:13;2.35;;;2.15;;
9005;SDS011;62284;50.702;7.140;2022-11-15T09:01:40;2.97;;;2.67;;
9005;SDS011;62284;50.702;7.140;2022-11-15T09:04:07;2.25;;;2.15;;
9005;SDS011;62284;50.702;7.140;2022-11-15T09:06:34;2.92;;;2.72;;
9005;SDS011;62284;50.702;7.140;2022-11-15T09:09:01;2.65;;;2.45;;
9005;SDS011;62284;50.702;7.140;2022-11-15T09:11:29;2.70;;;2.35;;
9005;SDS011;62284;50.702;7.140;2022-11-15T09:13:56;2.90;;;2.70;;
9005;SDS011;62284;50.702;7.140;2022-11-15T09:16:22;2.80;;;2.60;;
9005;SDS011;62284;50.702;7.140;2022-11-15T09:18:49;3.65;;;2.35;;
9005;SDS011;62284;50.702;7.140;2022-11-15T09:21:16;2.60;;;2.40;;
9005;SDS011;62284;50.702;7.140;2022-11-15T09:23:43;2.58;;;2.38;;
9005;SDS011;62284;50.702;7.140;2022-11-15T09:26:10;2.78;;;2.28;;
9005;SDS011;62284;50.702;7.140;2022-11-15T09:28:38;2.22;;;2.03;;
9005;SDS011;62284;50.702;7.140;2022-11-15T09:31:06;2.40;;;2.20;;
9005;SDS011;62284;50.702;7.140;2022-11-15T09:33:33;2.03;;;1.92;;
9005;SDS011;62284;50.702;7.140;2022-11-15T09:36:00;1.90;;;1.80;;
9005;SDS011;62284;50.702;7.140;2022-11-15T09:38:28;1.63;;;1.52;;
9005;SDS011;62284;50.702;7.140;2022-11-15T09:40:58;2.83;;;1.48;;
9005;SDS011;62284;50.702;7.140;2022-11-15T09:43:42;2.72;;;1.30;;
9005;SDS011;62284;50.702;7.140;2022-11-15T09:46:15;1.92;;;1.40;;
9005;SDS011;62284;50.702;7.140;2022-11-15T09:48:51;1.48;;;1.38;;
9005;SDS011;62284;50.702;7.140;2022-11-15T09:51:24;1.55;;;1.45;;
9005;SDS011;62284;50.702;7.140;2022-11-15T09:54:00;1.02;;;1.00;;
9005;SDS011;62284;50.702;7.140;2022-11-15T09:56:31;1.58;;;1.08;;
9005;SDS011;62284;50.702;7.140;2022-11-15T09:59:15;2.40;;;1.00;;
9005;SDS011;62284;50.702;7.140;2022-11-15T10:02:12;2.50;;;1.30;;
9005;SDS011;62284;50.702;7.140;2022-11-15T10:04:59;3.53;;;1.65;;
9005;SDS011;62284;50.702;7.140;2022-11-15T10:07:28;1.55;;;1.20;;
9005;SDS011;62284;50.702;7.140;2022-11-15T10:10:00;1.80;;;0.95;;
9005;SDS011;62284;50.702;7.140;2022-11-15T10:12:37;1.27;;;1.17;;
9005;SDS011;62284;50.702;7.140;2022-11-15T10:15:11;1.27;;;1.10;;
9005;SDS011;62284;50.702;7.140;2022-11-15T10:17:46;1.45;;;1.05;;
9005;SDS011;62284;50.702;7.140;2022-11-15T10:20:34;2.05;;;0.93;;
9005;SDS011;62284;50.702;7.140;2022-11-15T10:23:10;2.25;;;1.42;;
9005;SDS011;62284;50.702;7.140;2022-11-15T10:25:39;1.35;;;1.00;;
9005;SDS011;62284;50.702;7.140;2022-11-15T10:28:09;1.33;;;1.20;;
9005;SDS011;62284;50.702;7.140;2022-11-15T10:30:42;1.17;;;1.08;;
9005;SDS011;62284;50.702;7.140;2022-11-15T10:33:12;2.55;;;1.23;;
9005;SDS011;62284;50.702;7.140;2022-11-15T10:35:45;1.30;;;1.23;;
9005;SDS011;62284;50.702;7.140;2022-11-15T10:38:12;3.72;;;1.42;;
9005;SDS011;62284;50.702;7.140;2022-11-15T10:40:40;0.82;;;0.70;;
9005;SDS011;62284;50.702;7.140;2022-11-15T10:43:15;0.93;;;0.90;;
9005;SDS011;62284;50.702;7.140;2022-11-15T10:45:45;3.88;;;2.05;;
9005;SDS011;62284;50.702;7.140;2022-11-15T10:48:21;2.17;;;1.25;;
9005;SDS011;62284;50.702;7.140;2022-11-15T10:50:51;1.88;;;0.95;;
9005;SDS011;62284;50.702;7.140;2022-11-15T10:53:22;1.75;;;1.13;;
9005;SDS011;62284;50.702;7.140;2022-11-15T10:55:53;1.77;;;1.10;;
9005;SDS011;62284;50.702;7.140;2022-11-15T10:58:27;1.25;;;1.15;;
9005;SDS011;62284;50.702;7.140;2022-11-15T11:01:09;2.42;;;1.35;;
9005;SDS011;62284;50.702;7.140;2022-11-15T11:03:39;2.00;;;0.95;;
9005;SDS011;62284;50.702;7.140;2022-11-15T11:06:08;1.92;;;1.10;;
9005;SDS011;62284;50.702;7.140;2022-11-15T11:08:37;1.45;;;1.05;;
9005;SDS011;62284;50.702;7.140;2022-11-15T11:11:04;2.05;;;1.50;;
9005;SDS011;62284;50.702;7.140;2022-11-15T11:13:33;3.17;;;1.73;;
9005;SDS011;62284;50.702;7.140;2022-11-15T11:16:14;1.48;;;1.05;;
9005;SDS011;62284;50.702;7.140;2022-11-15T11:18:49;0.98;;;0.60;;
9005;SDS011;62284;50.702;7.140;2022-11-15T11:21:25;1.73;;;1.10;;
9005;SDS011;62284;50.702;7.140;2022-11-15T11:23:59;2.30;;;1.15;;
9005;SDS011;62284;50.702;7.140;2022-11-15T11:26:35;2.05;;;1.15;;
9005;SDS011;62284;50.702;7.140;2022-11-15T11:29:14;2.13;;;1.20;;
9005;SDS011;62284;50.702;7.140;2022-11-15T11:31:53;1.70;;;1.13;;
9005;SDS011;62284;50.702;7.140;2022-11-15T11:34:29;1.02;;;1.00;;
9005;SDS011;62284;50.702;7.140;2022-11-15T11:37:08;1.80;;;1.00;;
9005;SDS011;62284;50.702;7.140;2022-11-15T11:39:40;1.20;;;1.13;;
9005;SDS011;62284;50.702;7.140;2022-11-15T11:42:23;2.33;;;1.85;;
9005;SDS011;62284;50.702;7.140;2022-11-15T11:45:02;3.25;;;1.88;;
9005;SDS011;62284;50.702;7.140;2022-11-15T11:47:39;1.98;;;1.73;;
9005;SDS011;62284;50.702;7.140;2022-11-15T11:50:10;2.35;;;1.40;;
9005;SDS011;62284;50.702;7.140;2022-11-15T11:52:41;3.33;;;1.60;;
9005;SDS011;62284;50.702;7.140;2022-11-15T11:55:21;3.13;;;1.98;;
9005;SDS011;62284;50.702;7.140;2022-11-15T11:57:53;2.90;;;1.80;;
9005;SDS011;62284;50.702;7.140;2022-11-15T12:00:28;2.85;;;1.70;;
9005;SDS011;62284;50.702;7.140;2022-11-15T12:03:03;1.50;;;1.27;;
9005;SDS011;62284;50.702;7.140;2022-11-15T12:05:35;2.42;;;1.73;;
9005;SDS011;62284;50.702;7.140;2022-11-15T12:08:17;3.55;;;1.90;;
9005;SDS011;62284;50.702;7.140;2022-11-15T12:10:53;1.58;;;1.48;;
9005;SDS011;62284;50.702;7.140;2022-11-15T12:13:26;2.03;;;1.80;;
9005;SDS011;62284;50.702;7.140;2022-11-15T12:16:00;1.95;;;1.70;;
9005;SDS011;62284;50.702;7.140;2022-11-15T12:18:33;2.60;;;2.15;;
9005;SDS011;62284;50.702;7.140;2022-11-15T12:21:02;2.15;;;1.70;;
9005;SDS011;62284;50.702;7.140;2022-11-15T12:23:37;2.05;;;1.75;;
9005;SDS011;62284;50.702;7.140;2022-11-15T12:26:09;1.92;;;1.83;;
9005;SDS011;62284;50.702;7.140;2022-11-15T12:28:38;3.60;;;2.47;;
9005;SDS011;62284;50.702;7.140;2022-11-15T12:31:10;1.90;;;1.70;;
9005;SDS011;62284;50.702;7.140;2022-11-15T12:33:43;3.10;;;2.10;;
9005;SDS011;62284;50.702;7.140;2022-11-15T12:36:12;2.88;;;2.47;;
9005;SDS011;62284;50.702;7.140;2022-11-15T12:39:00;2.15;;;1.98;;
9005;SDS011;62284;50.702;7.140;2022-11-15T12:41:29;2.70;;;2.42;;
9005;SDS011;62284;50.702;7.140;2022-11-15T12:43:57;2.83;;;2.33;;
9005;SDS011;62284;50.702;7.140;2022-11-15T12:49:46;2.80;;;2.50;;
9005;SDS011;62284;50.702;7.140;2022-11-15T12:52:13;3.22;;;2.88;;
9005;SDS011;62284;50.702;7.140;2022-11-15T12:54:51;3.88;;;2.50;;
9005;SDS011;62284;50.702;7.140;2022-11-15T12:57:33;2.58;;;2.38;;
9005;SDS011;62284;50.702;7.140;2022-11-15T13:00:19;2.88;;;2.35;;
9005;SDS011;62284;50.702;7.140;2022-11-15T13:03:24;2.30;;;2.10;;
9005;SDS011;62284;50.702;7.140;2022-11-15T13:06:04;2.30;;;2.10;;
9005;SDS011;62284;50.702;7.140;2022-11-15T13:08:56;2.08;;;1.98;;
9005;SDS011;62284;50.702;7.140;2022-11-15T13:11:42;2.33;;;1.90;;
9005;SDS011;62284;50.702;7.140;2022-11-15T13:17:23;3.47;;;2.22;;
9005;SDS011;62284;50.702;7.140;2022-11-15T13:19:53;2.25;;;2.05;;
9005;SDS011;62284;50.702;7.140;2022-11-15T13:22:26;2.35;;;1.90;;
9005;SDS011;62284;50.702;7.140;2022-11-15T13:25:15;3.42;;;2.47;;
9005;SDS011;62284;50.702;7.140;2022-11-15T13:27:46;2.20;;;1.98;;
9005;SDS011;62284;50.702;7.140;2022-11-15T13:30:16;3.72;;;2.25;;
9005;SDS011;62284;50.702;7.140;2022-11-15T13:32:46;2.40;;;2.20;;
9005;SDS011;62284;50.702;7.140;2022-11-15T13:35:18;2.67;;;2.47;;
9005;SDS011;62284;50.702;7.140;2022-11-15T13:37:48;2.55;;;2.35;;
9005;SDS011;62284;50.702;7.140;2022-11-15T13:40:19;2.42;;;2.28;;
9005;SDS011;62284;50.702;7.140;2022-11-15T13:42:48;2.35;;;2.20;;
9005;SDS011;62284;50.702;7.140;2022-11-15T13:45:16;1.98;;;1.80;;
9005;SDS011;62284;50.702;7.140;2022-11-15T13:47:44;2.50;;;2.30;;
9005;SDS011;62284;50.702;7.140;2022-11-15T13:50:16;2.35;;;2.20;;
9005;SDS011;62284;50.702;7.140;2022-11-15T13:52:45;2.80;;;2.60;;
9005;SDS011;62284;50.702;7.140;2022-11-15T13:55:15;4.25;;;2.50;;
9005;SDS011;62284;50.702;7.140;2022-11-15T13:57:45;2.58;;;2.38;;
9005;SDS011;62284;50.702;7.140;2022-11-15T14:03:07;2.42;;;2.22;;
9005;SDS011;62284;50.702;7.140;2022-11-15T14:05:41;2.42;;;2.22;;
9005;SDS011;62284;50.702;7.140;2022-11-15T14:08:21;1.95;;;1.85;;
9005;SDS011;62284;50.702;7.140;2022-11-15T14:13:32;2.58;;;1.98;;
9005;SDS011;62284;50.702;7.140;2022-11-15T14:16:12;1.92;;;1.83;;
9005;SDS011;62284;50.702;7.140;2022-11-15T14:18:41;1.83;;;1.73;;
9005;SDS011;62284;50.702;7.140;2022-11-15T14:21:10;1.85;;;1.75;;
9005;SDS011;62284;50.702;7.140;2022-11-15T14:23:38;1.83;;;1.73;;
9005;SDS011;62284;50.702;7.140;2022-11-15T14:26:05;2.97;;;1.70;;
9005;SDS011;62284;50.702;7.140;2022-11-15T14:28:37;1.63;;;1.45;;
9005;SDS011;62284;50.702;7.140;2022-11-15T14:31:06;2.58;;;1.50;;
9005;SDS011;62284;50.702;7.140;2022-11-15T14:33:38;3.08;;;1.80;;
9005;SDS011;62284;50.702;7.140;2022-11-15T14:36:06;2.33;;;1.75;;
9005;SDS011;62284;50.702;7.140;2022-11-15T14:38:39;1.75;;;1.65;;
9005;SDS011;62284;50.702;7.140;2022-11-15T14:41:10;2.47;;;2.00;;
9005;SDS011;62284;50.702;7.140;2022-11-15T14:43:44;1.70;;;1.60;;
9005;SDS011;62284;50.702;7.140;2022-11-15T14:46:11;1.67;;;1.58;;
9005;SDS011;62284;50.702;7.140;2022-11-15T14:48:37;1.65;;;1.55;;
9005;SDS011;62284;50.702;7.140;2022-11-15T14:51:08;1.38;;;1.35;;
9005;SDS011;62284;50.702;7.140;2022-11-15T14:53:39;1.75;;;1.65;;
9005;SDS011;62284;50.702;7.140;2022-11-15T14:56:06;2.67;;;1.88;;
9005;SDS011;62284;50.702;7.140;2022-11-15T14:58:33;2.45;;;1.60;;
9005;SDS011;62284;50.702;7.140;2022-11-15T15:01:01;3.33;;;1.90;;
9005;SDS011;62284;50.702;7.140;2022-11-15T15:03:29;2.00;;;1.80;;
9005;SDS011;62284;50.702;7.140;2022-11-15T15:05:55;2.38;;;1.88;;
9005;SDS011;62284;50.702;7.140;2022-11-15T15:08:22;2.38;;;1.75;;
9005;SDS011;62284;50.702;7.140;2022-11-15T15:10:50;1.90;;;1.70;;
9005;SDS011;62284;50.702;7.140;2022-11-15T15:13:18;1.70;;;1.60;;
9005;SDS011;62284;50.702;7.140;2022-11-15T15:15:46;2.05;;;1.85;;
9005;SDS011;62284;50.702;7.140;2022-11-15T15:18:14;2.45;;;1.98;;
9005;SDS011;62284;50.702;7.140;2022-11-15T15:20:42;2.58;;;1.80;;
9005;SDS011;62284;50.702;7.140;2022-11-15T15:23:13;2.25;;;1.77;;
9005;SDS011;62284;50.702;7.140;2022-11-15T15:25:42;2.85;;;2.15;;
9005;SDS011;62284;50.702;7.140;2022-11-15T15:28:11;2.22;;;1.55;;
9005;SDS011;62284;50.702;7.140;2022-11-15T15:30:39;1.88;;;1.77;;
9005;SDS011;62284;50.702;7.140;2022-11-15T15:33:06;2.05;;;1.92;;
9005;SDS011;62284;50.702;7.140;2022-11-15T15:35:33;2.20;;;2.00;;
9005;SDS011;62284;50.702;7.140;2022-11-15T15:38:01;2.03;;;1.90;;